sensor_id;sensor_type;location;lat;lon;timestamp;P1;durP1;ratioP1;P2;durP2;ratioP2
8714;SDS011;4394;51.208;8.904;2024-01-30T00:00:53;14.97;;;8.70;;
8714;SDS011;4394;51.208;8.904;2024-01-30T00:03:41;13.33;;;9.40;;
8714;SDS011;4394;51.208;8.904;2024-01-30T00:06:31;13.93;;;9.27;;
8714;SDS011;4394;51.208;8.904;2024-01-30T00:09:19;16.60;;;9.57;;
8714;SDS011;4394;51.208;8.904;2024-01-30T00:12:07;12.63;;;9.30;;
8714;SDS011;4394;51.208;8.904;2024-01-30T00:14:56;14.80;;;9.53;;
8714;SDS011;4394;51.208;8.904;2024-01-30T00:17:44;14.27;;;9.47;;
8714;SDS011;4394;51.208;8.904;2024-01-30T00:20:32;14.90;;;9.57;;
8714;SDS011;4394;51.208;8.904;2024-01-30T00:23:21;15.50;;;9.90;;
8714;SDS011;4394;51.208;8.904;2024-01-30T00:26:10;15.13;;;9.43;;
8714;SDS011;4394;51.208;8.904;2024-01-30T00:28:58;14.07;;;9.67;;
8714;SDS011;4394;51.208;8.904;2024-01-30T00:31:47;13.00;;;8.93;;
8714;SDS011;4394;51.208;8.904;2024-01-30T00:34:35;13.37;;;9.87;;
8714;SDS011;4394;51.208;8.904;2024-01-30T00:37:23;18.23;;;10.03;;
8714;SDS011;4394;51.208;8.904;2024-01-30T00:40:13;16.13;;;9.70;;
8714;SDS011;4394;51.208;8.904;2024-01-30T00:43:02;12.93;;;9.47;;
8714;SDS011;4394;51.208;8.904;2024-01-30T00:45:51;14.47;;;9.70;;
8714;SDS011;4394;51.208;8.904;2024-01-30T00:48:39;14.80;;;9.97;;
8714;SDS011;4394;51.208;8.904;2024-01-30T00:51:27;13.53;;;9.47;;
8714;SDS011;4394;51.208;8.904;2024-01-30T00:54:16;14.03;;;9.60;;
8714;SDS011;4394;51.208;8.904;2024-01-30T00:57:05;15.23;;;8.70;;
8714;SDS011;4394;51.208;8.904;2024-01-30T00:59:53;13.10;;;9.70;;
8714;SDS011;4394;51.208;8.904;2024-01-30T01:02:41;14.23;;;9.87;;
8714;SDS011;4394;51.208;8.904;2024-01-30T01:05:30;15.20;;;10.03;;
8714;SDS011;4394;51.208;8.904;2024-01-30T01:08:18;15.30;;;9.60;;
8714;SDS011;4394;51.208;8.904;2024-01-30T01:11:06;14.93;;;8.93;;
8714;SDS011;4394;51.208;8.904;2024-01-30T01:13:56;14.27;;;8.80;;
8714;SDS011;4394;51.208;8.904;2024-01-30T01:16:44;14.43;;;10.03;;
8714;SDS011;4394;51.208;8.904;2024-01-30T01:19:32;14.70;;;10.07;;
8714;SDS011;4394;51.208;8.904;2024-01-30T01:22:20;13.27;;;9.40;;
8714;SDS011;4394;51.208;8.904;2024-01-30T01:25:09;14.77;;;9.60;;
8714;SDS011;4394;51.208;8.904;2024-01-30T01:27:57;17.10;;;10.20;;
8714;SDS011;4394;51.208;8.904;2024-01-30T01:30:49;12.87;;;9.77;;
8714;SDS011;4394;51.208;8.904;2024-01-30T01:33:38;13.17;;;8.60;;
8714;SDS011;4394;51.208;8.904;2024-01-30T01:36:26;14.20;;;9.63;;
8714;SDS011;4394;51.208;8.904;2024-01-30T01:39:14;12.13;;;9.43;;
8714;SDS011;4394;51.208;8.904;2024-01-30T01:42:02;12.83;;;9.33;;
8714;SDS011;4394;51.208;8.904;2024-01-30T01:44:51;11.87;;;8.80;;
8714;SDS011;4394;51.208;8.904;2024-01-30T01:47:41;12.33;;;9.00;;
8714;SDS011;4394;51.208;8.904;2024-01-30T01:50:29;15.10;;;9.73;;
8714;SDS011;4394;51.208;8.904;2024-01-30T01:53:18;14.77;;;9.70;;
8714;SDS011;4394;51.208;8.904;2024-01-30T01:56:06;12.73;;;8.90;;
8714;SDS011;4394;51.208;8.904;2024-01-30T01:58:55;14.83;;;9.47;;
8714;SDS011;4394;51.208;8.904;2024-01-30T02:01:45;13.97;;;9.47;;
8714;SDS011;4394;51.208;8.904;2024-01-30T02:04:37;15.03;;;9.50;;
8714;SDS011;4394;51.208;8.904;2024-01-30T02:07:25;13.87;;;8.90;;
8714;SDS011;4394;51.208;8.904;2024-01-30T02:10:14;13.23;;;9.20;;
8714;SDS011;4394;51.208;8.904;2024-01-30T02:13:03;13.17;;;8.97;;
8714;SDS011;4394;51.208;8.904;2024-01-30T02:15:51;14.67;;;9.37;;
8714;SDS011;4394;51.208;8.904;2024-01-30T02:18:39;12.63;;;8.83;;
8714;SDS011;4394;51.208;8.904;2024-01-30T02:21:31;16.73;;;9.97;;
8714;SDS011;4394;51.208;8.904;2024-01-30T02:24:19;12.83;;;9.00;;
8714;SDS011;4394;51.208;8.904;2024-01-30T02:27:07;16.37;;;9.37;;
8714;SDS011;4394;51.208;8.904;2024-01-30T02:29:55;15.80;;;8.73;;
8714;SDS011;4394;51.208;8.904;2024-01-30T02:32:43;13.33;;;9.07;;
8714;SDS011;4394;51.208;8.904;2024-01-30T02:35:31;13.93;;;9.30;;
8714;SDS011;4394;51.208;8.904;2024-01-30T02:38:21;11.87;;;8.80;;
8714;SDS011;4394;51.208;8.904;2024-01-30T02:41:10;14.00;;;9.03;;
8714;SDS011;4394;51.208;8.904;2024-01-30T02:43:58;14.00;;;8.83;;
8714;SDS011;4394;51.208;8.904;2024-01-30T02:46:46;13.07;;;9.33;;
8714;SDS011;4394;51.208;8.904;2024-01-30T02:49:34;12.87;;;8.57;;
8714;SDS011;4394;51.208;8.904;2024-01-30T02:52:22;16.50;;;10.27;;
8714;SDS011;4394;51.208;8.904;2024-01-30T02:55:13;17.50;;;9.90;;
8714;SDS011;4394;51.208;8.904;2024-01-30T02:58:04;12.53;;;9.20;;
8714;SDS011;4394;51.208;8.904;2024-01-30T03:00:53;14.13;;;9.70;;
8714;SDS011;4394;51.208;8.904;2024-01-30T03:03:41;13.30;;;8.70;;
8714;SDS011;4394;51.208;8.904;2024-01-30T03:06:31;13.33;;;9.37;;
8714;SDS011;4394;51.208;8.904;2024-01-30T03:09:20;12.97;;;9.40;;
8714;SDS011;4394;51.208;8.904;2024-01-30T03:12:09;12.00;;;8.83;;
8714;SDS011;4394;51.208;8.904;2024-01-30T03:14:58;14.07;;;9.07;;
8714;SDS011;4394;51.208;8.904;2024-01-30T03:17:47;11.90;;;8.70;;
8714;SDS011;4394;51.208;8.904;2024-01-30T03:20:36;12.50;;;8.43;;
8714;SDS011;4394;51.208;8.904;2024-01-30T03:23:25;11.20;;;8.80;;
8714;SDS011;4394;51.208;8.904;2024-01-30T03:26:13;11.27;;;8.70;;
8714;SDS011;4394;51.208;8.904;2024-01-30T03:29:03;14.00;;;8.87;;
8714;SDS011;4394;51.208;8.904;2024-01-30T03:31:52;14.37;;;8.20;;
8714;SDS011;4394;51.208;8.904;2024-01-30T03:34:42;11.60;;;8.67;;
8714;SDS011;4394;51.208;8.904;2024-01-30T03:37:32;13.93;;;8.87;;
8714;SDS011;4394;51.208;8.904;2024-01-30T03:40:21;16.20;;;9.27;;
8714;SDS011;4394;51.208;8.904;2024-01-30T03:43:10;12.10;;;8.40;;
8714;SDS011;4394;51.208;8.904;2024-01-30T03:46:01;12.97;;;8.80;;
8714;SDS011;4394;51.208;8.904;2024-01-30T03:48:50;14.77;;;9.27;;
8714;SDS011;4394;51.208;8.904;2024-01-30T03:51:39;16.77;;;8.80;;
8714;SDS011;4394;51.208;8.904;2024-01-30T03:54:28;11.93;;;8.50;;
8714;SDS011;4394;51.208;8.904;2024-01-30T03:57:17;12.03;;;8.87;;
8714;SDS011;4394;51.208;8.904;2024-01-30T04:00:06;12.90;;;9.03;;
8714;SDS011;4394;51.208;8.904;2024-01-30T04:02:58;11.97;;;9.17;;
8714;SDS011;4394;51.208;8.904;2024-01-30T04:05:47;12.83;;;8.93;;
8714;SDS011;4394;51.208;8.904;2024-01-30T04:08:37;11.73;;;8.23;;
8714;SDS011;4394;51.208;8.904;2024-01-30T04:11:26;13.60;;;8.93;;
8714;SDS011;4394;51.208;8.904;2024-01-30T04:14:15;15.53;;;8.80;;
8714;SDS011;4394;51.208;8.904;2024-01-30T04:17:04;13.80;;;9.00;;
8714;SDS011;4394;51.208;8.904;2024-01-30T04:19:55;13.87;;;9.17;;
8714;SDS011;4394;51.208;8.904;2024-01-30T04:22:44;13.57;;;8.60;;
8714;SDS011;4394;51.208;8.904;2024-01-30T04:25:33;12.23;;;8.73;;
8714;SDS011;4394;51.208;8.904;2024-01-30T04:28:22;12.20;;;8.40;;
8714;SDS011;4394;51.208;8.904;2024-01-30T04:31:12;13.63;;;8.77;;
8714;SDS011;4394;51.208;8.904;2024-01-30T04:34:00;12.17;;;8.47;;
8714;SDS011;4394;51.208;8.904;2024-01-30T04:36:49;13.83;;;8.63;;
8714;SDS011;4394;51.208;8.904;2024-01-30T04:39:38;11.17;;;8.20;;
8714;SDS011;4394;51.208;8.904;2024-01-30T04:42:26;14.77;;;8.77;;
8714;SDS011;4394;51.208;8.904;2024-01-30T04:45:16;14.97;;;9.40;;
8714;SDS011;4394;51.208;8.904;2024-01-30T04:48:06;12.57;;;8.87;;
8714;SDS011;4394;51.208;8.904;2024-01-30T04:50:55;15.27;;;8.63;;
8714;SDS011;4394;51.208;8.904;2024-01-30T04:53:45;13.73;;;8.77;;
8714;SDS011;4394;51.208;8.904;2024-01-30T04:56:34;12.20;;;8.43;;
8714;SDS011;4394;51.208;8.904;2024-01-30T04:59:22;12.37;;;8.60;;
8714;SDS011;4394;51.208;8.904;2024-01-30T05:02:10;11.87;;;8.37;;
8714;SDS011;4394;51.208;8.904;2024-01-30T05:05:01;13.10;;;8.40;;
8714;SDS011;4394;51.208;8.904;2024-01-30T05:07:51;14.20;;;8.83;;
8714;SDS011;4394;51.208;8.904;2024-01-30T05:10:41;10.70;;;7.90;;
8714;SDS011;4394;51.208;8.904;2024-01-30T05:13:31;13.30;;;8.97;;
8714;SDS011;4394;51.208;8.904;2024-01-30T05:16:19;12.83;;;9.23;;
8714;SDS011;4394;51.208;8.904;2024-01-30T05:19:07;11.93;;;9.30;;
8714;SDS011;4394;51.208;8.904;2024-01-30T05:21:56;12.17;;;9.30;;
8714;SDS011;4394;51.208;8.904;2024-01-30T05:24:44;13.30;;;8.60;;
8714;SDS011;4394;51.208;8.904;2024-01-30T05:27:33;14.83;;;8.73;;
8714;SDS011;4394;51.208;8.904;2024-01-30T05:30:21;12.00;;;8.57;;
8714;SDS011;4394;51.208;8.904;2024-01-30T05:33:09;13.20;;;9.43;;
8714;SDS011;4394;51.208;8.904;2024-01-30T05:35:58;13.80;;;8.83;;
8714;SDS011;4394;51.208;8.904;2024-01-30T05:38:46;13.10;;;8.77;;
8714;SDS011;4394;51.208;8.904;2024-01-30T05:41:34;14.13;;;9.50;;
8714;SDS011;4394;51.208;8.904;2024-01-30T05:44:24;12.43;;;9.13;;
8714;SDS011;4394;51.208;8.904;2024-01-30T05:47:12;12.50;;;8.37;;
8714;SDS011;4394;51.208;8.904;2024-01-30T05:50:00;11.77;;;8.80;;
8714;SDS011;4394;51.208;8.904;2024-01-30T05:52:48;12.10;;;8.93;;
8714;SDS011;4394;51.208;8.904;2024-01-30T05:55:36;13.90;;;9.10;;
8714;SDS011;4394;51.208;8.904;2024-01-30T05:58:24;13.77;;;9.13;;
8714;SDS011;4394;51.208;8.904;2024-01-30T06:01:14;12.07;;;9.17;;
8714;SDS011;4394;51.208;8.904;2024-01-30T06:04:02;13.23;;;8.93;;
8714;SDS011;4394;51.208;8.904;2024-01-30T06:06:51;12.40;;;8.33;;
8714;SDS011;4394;51.208;8.904;2024-01-30T06:09:39;12.40;;;8.37;;
8714;SDS011;4394;51.208;8.904;2024-01-30T06:12:27;12.80;;;8.90;;
8714;SDS011;4394;51.208;8.904;2024-01-30T06:15:16;12.73;;;8.63;;
8714;SDS011;4394;51.208;8.904;2024-01-30T06:18:06;11.83;;;8.87;;
8714;SDS011;4394;51.208;8.904;2024-01-30T06:20:54;14.80;;;9.70;;
8714;SDS011;4394;51.208;8.904;2024-01-30T06:23:42;13.00;;;8.33;;
8714;SDS011;4394;51.208;8.904;2024-01-30T06:26:30;13.47;;;9.40;;
8714;SDS011;4394;51.208;8.904;2024-01-30T06:29:18;13.27;;;8.73;;
8714;SDS011;4394;51.208;8.904;2024-01-30T06:32:07;11.90;;;8.70;;
8714;SDS011;4394;51.208;8.904;2024-01-30T06:34:56;14.10;;;8.97;;
8714;SDS011;4394;51.208;8.904;2024-01-30T06:37:44;14.60;;;9.17;;
8714;SDS011;4394;51.208;8.904;2024-01-30T06:40:32;12.80;;;9.07;;
8714;SDS011;4394;51.208;8.904;2024-01-30T06:43:21;15.07;;;9.10;;
8714;SDS011;4394;51.208;8.904;2024-01-30T06:46:10;11.23;;;8.33;;
8714;SDS011;4394;51.208;8.904;2024-01-30T06:48:58;16.47;;;8.90;;
8714;SDS011;4394;51.208;8.904;2024-01-30T06:51:47;13.00;;;9.30;;
8714;SDS011;4394;51.208;8.904;2024-01-30T06:54:35;13.70;;;9.10;;
8714;SDS011;4394;51.208;8.904;2024-01-30T06:57:23;13.10;;;9.17;;
8714;SDS011;4394;51.208;8.904;2024-01-30T07:00:14;14.67;;;9.90;;
8714;SDS011;4394;51.208;8.904;2024-01-30T07:03:05;13.87;;;9.67;;
8714;SDS011;4394;51.208;8.904;2024-01-30T07:05:53;12.27;;;9.33;;
8714;SDS011;4394;51.208;8.904;2024-01-30T07:08:42;13.60;;;9.47;;
8714;SDS011;4394;51.208;8.904;2024-01-30T07:11:30;16.20;;;10.13;;
8714;SDS011;4394;51.208;8.904;2024-01-30T07:14:19;13.77;;;9.77;;
8714;SDS011;4394;51.208;8.904;2024-01-30T07:17:07;13.87;;;9.70;;
8714;SDS011;4394;51.208;8.904;2024-01-30T07:19:55;18.40;;;9.63;;
8714;SDS011;4394;51.208;8.904;2024-01-30T07:22:43;14.70;;;9.97;;
8714;SDS011;4394;51.208;8.904;2024-01-30T07:25:32;15.43;;;9.63;;
8714;SDS011;4394;51.208;8.904;2024-01-30T07:28:23;15.83;;;9.97;;
8714;SDS011;4394;51.208;8.904;2024-01-30T07:31:11;13.50;;;9.60;;
8714;SDS011;4394;51.208;8.904;2024-01-30T07:33:59;15.13;;;9.60;;
8714;SDS011;4394;51.208;8.904;2024-01-30T07:36:49;14.87;;;9.83;;
8714;SDS011;4394;51.208;8.904;2024-01-30T07:39:41;17.23;;;9.90;;
8714;SDS011;4394;51.208;8.904;2024-01-30T07:42:31;15.90;;;10.33;;
8714;SDS011;4394;51.208;8.904;2024-01-30T07:45:19;13.67;;;9.60;;
8714;SDS011;4394;51.208;8.904;2024-01-30T07:48:08;16.97;;;10.43;;
8714;SDS011;4394;51.208;8.904;2024-01-30T07:50:57;13.97;;;9.80;;
8714;SDS011;4394;51.208;8.904;2024-01-30T07:53:45;13.37;;;9.33;;
8714;SDS011;4394;51.208;8.904;2024-01-30T07:56:33;16.57;;;10.57;;
8714;SDS011;4394;51.208;8.904;2024-01-30T07:59:22;20.00;;;10.63;;
8714;SDS011;4394;51.208;8.904;2024-01-30T08:02:11;14.97;;;9.97;;
8714;SDS011;4394;51.208;8.904;2024-01-30T08:04:59;15.87;;;10.03;;
8714;SDS011;4394;51.208;8.904;2024-01-30T08:07:48;14.50;;;9.60;;
8714;SDS011;4394;51.208;8.904;2024-01-30T08:10:36;16.60;;;10.47;;
8714;SDS011;4394;51.208;8.904;2024-01-30T08:13:24;16.40;;;11.03;;
8714;SDS011;4394;51.208;8.904;2024-01-30T08:16:14;15.07;;;10.20;;
8714;SDS011;4394;51.208;8.904;2024-01-30T08:19:02;26.37;;;17.97;;
8714;SDS011;4394;51.208;8.904;2024-01-30T08:21:50;17.53;;;11.47;;
8714;SDS011;4394;51.208;8.904;2024-01-30T08:24:38;16.20;;;10.40;;
8714;SDS011;4394;51.208;8.904;2024-01-30T08:27:28;15.00;;;10.30;;
8714;SDS011;4394;51.208;8.904;2024-01-30T08:30:16;17.57;;;10.73;;
8714;SDS011;4394;51.208;8.904;2024-01-30T08:33:05;14.50;;;10.57;;
8714;SDS011;4394;51.208;8.904;2024-01-30T08:35:53;17.00;;;10.47;;
8714;SDS011;4394;51.208;8.904;2024-01-30T08:38:41;14.43;;;9.77;;
8714;SDS011;4394;51.208;8.904;2024-01-30T08:41:29;12.40;;;9.80;;
8714;SDS011;4394;51.208;8.904;2024-01-30T08:44:18;18.77;;;10.53;;
8714;SDS011;4394;51.208;8.904;2024-01-30T08:47:06;14.53;;;10.27;;
8714;SDS011;4394;51.208;8.904;2024-01-30T08:49:56;15.20;;;11.00;;
8714;SDS011;4394;51.208;8.904;2024-01-30T08:52:44;14.97;;;10.30;;
8714;SDS011;4394;51.208;8.904;2024-01-30T08:55:34;16.00;;;10.63;;
8714;SDS011;4394;51.208;8.904;2024-01-30T08:58:22;17.70;;;11.60;;
8714;SDS011;4394;51.208;8.904;2024-01-30T09:01:10;15.87;;;10.83;;
8714;SDS011;4394;51.208;8.904;2024-01-30T09:03:59;17.30;;;11.80;;
8714;SDS011;4394;51.208;8.904;2024-01-30T09:06:48;16.63;;;10.93;;
8714;SDS011;4394;51.208;8.904;2024-01-30T09:09:37;14.40;;;10.00;;
8714;SDS011;4394;51.208;8.904;2024-01-30T09:12:27;14.60;;;10.67;;
8714;SDS011;4394;51.208;8.904;2024-01-30T09:15:15;15.97;;;10.93;;
8714;SDS011;4394;51.208;8.904;2024-01-30T09:18:03;14.70;;;10.20;;
8714;SDS011;4394;51.208;8.904;2024-01-30T09:20:53;15.27;;;11.20;;
8714;SDS011;4394;51.208;8.904;2024-01-30T09:23:42;14.53;;;11.00;;
8714;SDS011;4394;51.208;8.904;2024-01-30T09:26:31;16.90;;;11.20;;
8714;SDS011;4394;51.208;8.904;2024-01-30T09:29:19;16.03;;;11.33;;
8714;SDS011;4394;51.208;8.904;2024-01-30T09:32:08;14.77;;;10.90;;
8714;SDS011;4394;51.208;8.904;2024-01-30T09:34:57;17.23;;;11.40;;
8714;SDS011;4394;51.208;8.904;2024-01-30T09:37:46;16.30;;;10.70;;
8714;SDS011;4394;51.208;8.904;2024-01-30T09:40:36;17.13;;;11.20;;
8714;SDS011;4394;51.208;8.904;2024-01-30T09:43:24;17.17;;;10.43;;
8714;SDS011;4394;51.208;8.904;2024-01-30T09:46:13;14.77;;;10.37;;
8714;SDS011;4394;51.208;8.904;2024-01-30T09:49:04;14.90;;;10.67;;
8714;SDS011;4394;51.208;8.904;2024-01-30T09:51:55;14.87;;;10.70;;
8714;SDS011;4394;51.208;8.904;2024-01-30T09:54:43;14.37;;;10.33;;
8714;SDS011;4394;51.208;8.904;2024-01-30T09:57:34;15.70;;;10.60;;
8714;SDS011;4394;51.208;8.904;2024-01-30T10:00:22;14.10;;;10.30;;
8714;SDS011;4394;51.208;8.904;2024-01-30T10:03:13;15.07;;;10.77;;
8714;SDS011;4394;51.208;8.904;2024-01-30T10:06:02;14.57;;;11.03;;
8714;SDS011;4394;51.208;8.904;2024-01-30T10:08:50;13.63;;;10.73;;
8714;SDS011;4394;51.208;8.904;2024-01-30T10:11:38;16.57;;;11.00;;
8714;SDS011;4394;51.208;8.904;2024-01-30T10:14:28;16.37;;;11.27;;
8714;SDS011;4394;51.208;8.904;2024-01-30T10:17:16;15.50;;;10.50;;
8714;SDS011;4394;51.208;8.904;2024-01-30T10:20:17;15.13;;;10.70;;
8714;SDS011;4394;51.208;8.904;2024-01-30T10:23:09;15.90;;;11.00;;
8714;SDS011;4394;51.208;8.904;2024-01-30T10:25:57;16.47;;;11.27;;
8714;SDS011;4394;51.208;8.904;2024-01-30T10:28:45;15.80;;;11.43;;
8714;SDS011;4394;51.208;8.904;2024-01-30T10:31:35;16.30;;;11.20;;
8714;SDS011;4394;51.208;8.904;2024-01-30T10:34:24;16.20;;;11.40;;
8714;SDS011;4394;51.208;8.904;2024-01-30T10:37:12;14.90;;;11.00;;
8714;SDS011;4394;51.208;8.904;2024-01-30T10:40:03;15.80;;;12.00;;
8714;SDS011;4394;51.208;8.904;2024-01-30T10:42:52;15.60;;;10.77;;
8714;SDS011;4394;51.208;8.904;2024-01-30T10:45:43;14.53;;;11.30;;
8714;SDS011;4394;51.208;8.904;2024-01-30T10:48:37;14.70;;;11.00;;
8714;SDS011;4394;51.208;8.904;2024-01-30T10:51:31;17.83;;;10.93;;
8714;SDS011;4394;51.208;8.904;2024-01-30T10:54:21;16.60;;;11.17;;
8714;SDS011;4394;51.208;8.904;2024-01-30T10:57:12;14.87;;;11.27;;
8714;SDS011;4394;51.208;8.904;2024-01-30T11:00:01;20.33;;;11.80;;
8714;SDS011;4394;51.208;8.904;2024-01-30T11:02:56;17.67;;;11.33;;
8714;SDS011;4394;51.208;8.904;2024-01-30T11:05:49;16.33;;;11.27;;
8714;SDS011;4394;51.208;8.904;2024-01-30T11:08:38;15.37;;;11.13;;
8714;SDS011;4394;51.208;8.904;2024-01-30T11:11:26;16.07;;;11.17;;
8714;SDS011;4394;51.208;8.904;2024-01-30T11:14:14;14.43;;;11.07;;
8714;SDS011;4394;51.208;8.904;2024-01-30T11:17:02;14.67;;;11.30;;
8714;SDS011;4394;51.208;8.904;2024-01-30T11:19:51;15.67;;;11.77;;
8714;SDS011;4394;51.208;8.904;2024-01-30T11:22:44;17.43;;;11.83;;
8714;SDS011;4394;51.208;8.904;2024-01-30T11:25:33;14.57;;;10.97;;
8714;SDS011;4394;51.208;8.904;2024-01-30T11:28:23;18.23;;;11.23;;
8714;SDS011;4394;51.208;8.904;2024-01-30T11:31:11;15.03;;;11.37;;
8714;SDS011;4394;51.208;8.904;2024-01-30T11:34:06;14.93;;;11.10;;
8714;SDS011;4394;51.208;8.904;2024-01-30T11:36:56;16.03;;;11.77;;
8714;SDS011;4394;51.208;8.904;2024-01-30T11:39:47;16.13;;;11.40;;
8714;SDS011;4394;51.208;8.904;2024-01-30T11:42:36;16.87;;;10.97;;
8714;SDS011;4394;51.208;8.904;2024-01-30T11:45:26;15.83;;;10.83;;
8714;SDS011;4394;51.208;8.904;2024-01-30T11:48:14;18.30;;;11.30;;
8714;SDS011;4394;51.208;8.904;2024-01-30T11:51:03;14.83;;;11.13;;
8714;SDS011;4394;51.208;8.904;2024-01-30T11:53:51;14.70;;;11.03;;
8714;SDS011;4394;51.208;8.904;2024-01-30T11:56:40;16.43;;;11.23;;
8714;SDS011;4394;51.208;8.904;2024-01-30T11:59:29;15.30;;;11.33;;
8714;SDS011;4394;51.208;8.904;2024-01-30T12:02:17;15.67;;;11.30;;
8714;SDS011;4394;51.208;8.904;2024-01-30T12:05:05;15.23;;;11.63;;
8714;SDS011;4394;51.208;8.904;2024-01-30T12:07:54;15.47;;;11.27;;
8714;SDS011;4394;51.208;8.904;2024-01-30T12:10:45;15.40;;;11.40;;
8714;SDS011;4394;51.208;8.904;2024-01-30T12:13:35;15.03;;;11.37;;
8714;SDS011;4394;51.208;8.904;2024-01-30T12:16:23;15.53;;;11.77;;
8714;SDS011;4394;51.208;8.904;2024-01-30T12:19:20;13.83;;;11.30;;
8714;SDS011;4394;51.208;8.904;2024-01-30T12:22:10;17.40;;;11.93;;
8714;SDS011;4394;51.208;8.904;2024-01-30T12:24:58;15.20;;;11.13;;
8714;SDS011;4394;51.208;8.904;2024-01-30T12:27:48;17.60;;;11.67;;
8714;SDS011;4394;51.208;8.904;2024-01-30T12:30:39;14.53;;;11.43;;
8714;SDS011;4394;51.208;8.904;2024-01-30T12:33:27;18.03;;;11.63;;
8714;SDS011;4394;51.208;8.904;2024-01-30T12:36:16;17.57;;;11.43;;
8714;SDS011;4394;51.208;8.904;2024-01-30T12:39:04;17.37;;;11.20;;
8714;SDS011;4394;51.208;8.904;2024-01-30T12:41:53;16.30;;;12.07;;
8714;SDS011;4394;51.208;8.904;2024-01-30T12:44:41;16.90;;;11.67;;
8714;SDS011;4394;51.208;8.904;2024-01-30T12:47:31;16.27;;;11.73;;
8714;SDS011;4394;51.208;8.904;2024-01-30T12:50:19;17.33;;;12.87;;
8714;SDS011;4394;51.208;8.904;2024-01-30T12:53:07;17.90;;;12.00;;
8714;SDS011;4394;51.208;8.904;2024-01-30T12:55:55;16.13;;;11.47;;
8714;SDS011;4394;51.208;8.904;2024-01-30T12:58:44;16.73;;;12.17;;
8714;SDS011;4394;51.208;8.904;2024-01-30T13:01:37;16.87;;;11.87;;
8714;SDS011;4394;51.208;8.904;2024-01-30T13:04:26;15.50;;;10.93;;
8714;SDS011;4394;51.208;8.904;2024-01-30T13:07:15;14.50;;;10.90;;
8714;SDS011;4394;51.208;8.904;2024-01-30T13:10:03;17.77;;;11.97;;
8714;SDS011;4394;51.208;8.904;2024-01-30T13:12:52;14.77;;;10.93;;
8714;SDS011;4394;51.208;8.904;2024-01-30T13:15:40;16.77;;;11.47;;
8714;SDS011;4394;51.208;8.904;2024-01-30T13:18:29;16.60;;;11.40;;
8714;SDS011;4394;51.208;8.904;2024-01-30T13:21:18;15.40;;;11.27;;
8714;SDS011;4394;51.208;8.904;2024-01-30T13:24:06;15.73;;;11.27;;
8714;SDS011;4394;51.208;8.904;2024-01-30T13:26:54;16.20;;;11.57;;
8714;SDS011;4394;51.208;8.904;2024-01-30T13:29:43;14.70;;;10.77;;
8714;SDS011;4394;51.208;8.904;2024-01-30T13:32:31;15.53;;;10.90;;
8714;SDS011;4394;51.208;8.904;2024-01-30T13:35:19;15.13;;;10.17;;
8714;SDS011;4394;51.208;8.904;2024-01-30T13:38:09;14.53;;;11.17;;
8714;SDS011;4394;51.208;8.904;2024-01-30T13:40:57;16.20;;;11.63;;
8714;SDS011;4394;51.208;8.904;2024-01-30T13:43:45;14.50;;;10.60;;
8714;SDS011;4394;51.208;8.904;2024-01-30T13:46:34;13.80;;;10.67;;
8714;SDS011;4394;51.208;8.904;2024-01-30T13:49:22;14.33;;;10.60;;
8714;SDS011;4394;51.208;8.904;2024-01-30T13:52:11;16.70;;;11.00;;
8714;SDS011;4394;51.208;8.904;2024-01-30T13:55:03;17.47;;;12.43;;
8714;SDS011;4394;51.208;8.904;2024-01-30T13:57:51;21.20;;;12.63;;
8714;SDS011;4394;51.208;8.904;2024-01-30T14:00:39;18.63;;;11.77;;
8714;SDS011;4394;51.208;8.904;2024-01-30T14:03:27;20.00;;;11.60;;
8714;SDS011;4394;51.208;8.904;2024-01-30T14:06:16;16.50;;;11.23;;
8714;SDS011;4394;51.208;8.904;2024-01-30T14:09:04;16.47;;;11.93;;
8714;SDS011;4394;51.208;8.904;2024-01-30T14:11:55;17.20;;;11.83;;
8714;SDS011;4394;51.208;8.904;2024-01-30T14:14:43;15.70;;;11.73;;
8714;SDS011;4394;51.208;8.904;2024-01-30T14:17:31;18.17;;;11.30;;
8714;SDS011;4394;51.208;8.904;2024-01-30T14:20:19;14.13;;;10.67;;
8714;SDS011;4394;51.208;8.904;2024-01-30T14:23:07;17.37;;;11.77;;
8714;SDS011;4394;51.208;8.904;2024-01-30T14:25:56;15.83;;;11.20;;
8714;SDS011;4394;51.208;8.904;2024-01-30T14:28:50;18.33;;;11.90;;
8714;SDS011;4394;51.208;8.904;2024-01-30T14:31:38;16.73;;;11.70;;
8714;SDS011;4394;51.208;8.904;2024-01-30T14:34:26;14.73;;;11.10;;
8714;SDS011;4394;51.208;8.904;2024-01-30T14:37:15;17.90;;;12.63;;
8714;SDS011;4394;51.208;8.904;2024-01-30T14:40:05;17.77;;;11.90;;
8714;SDS011;4394;51.208;8.904;2024-01-30T14:42:54;17.50;;;11.57;;
8714;SDS011;4394;51.208;8.904;2024-01-30T14:45:44;16.97;;;11.80;;
8714;SDS011;4394;51.208;8.904;2024-01-30T14:48:35;14.80;;;11.50;;
8714;SDS011;4394;51.208;8.904;2024-01-30T14:51:23;20.47;;;11.47;;
8714;SDS011;4394;51.208;8.904;2024-01-30T14:54:11;16.87;;;11.30;;
8714;SDS011;4394;51.208;8.904;2024-01-30T14:57:00;16.67;;;11.50;;
8714;SDS011;4394;51.208;8.904;2024-01-30T14:59:48;14.73;;;11.70;;
8714;SDS011;4394;51.208;8.904;2024-01-30T15:02:37;15.80;;;11.33;;
8714;SDS011;4394;51.208;8.904;2024-01-30T15:05:25;15.60;;;11.53;;
8714;SDS011;4394;51.208;8.904;2024-01-30T15:08:13;15.03;;;10.90;;
8714;SDS011;4394;51.208;8.904;2024-01-30T15:11:02;18.43;;;11.30;;
8714;SDS011;4394;51.208;8.904;2024-01-30T15:13:50;17.63;;;11.50;;
8714;SDS011;4394;51.208;8.904;2024-01-30T15:16:38;16.07;;;11.47;;
8714;SDS011;4394;51.208;8.904;2024-01-30T15:19:28;16.40;;;12.10;;
8714;SDS011;4394;51.208;8.904;2024-01-30T15:22:16;18.47;;;12.00;;
8714;SDS011;4394;51.208;8.904;2024-01-30T15:25:05;17.80;;;11.63;;
8714;SDS011;4394;51.208;8.904;2024-01-30T15:27:54;18.90;;;11.53;;
8714;SDS011;4394;51.208;8.904;2024-01-30T15:30:42;14.90;;;11.10;;
8714;SDS011;4394;51.208;8.904;2024-01-30T15:33:31;17.43;;;12.27;;
8714;SDS011;4394;51.208;8.904;2024-01-30T15:36:21;17.77;;;11.77;;
8714;SDS011;4394;51.208;8.904;2024-01-30T15:39:09;16.53;;;11.57;;
8714;SDS011;4394;51.208;8.904;2024-01-30T15:41:57;15.50;;;11.60;;
8714;SDS011;4394;51.208;8.904;2024-01-30T15:44:45;16.77;;;11.47;;
8714;SDS011;4394;51.208;8.904;2024-01-30T15:47:34;15.77;;;11.57;;
8714;SDS011;4394;51.208;8.904;2024-01-30T15:50:23;17.87;;;12.60;;
8714;SDS011;4394;51.208;8.904;2024-01-30T15:53:13;16.77;;;12.40;;
8714;SDS011;4394;51.208;8.904;2024-01-30T15:56:01;15.90;;;11.43;;
8714;SDS011;4394;51.208;8.904;2024-01-30T15:58:49;16.43;;;11.90;;
8714;SDS011;4394;51.208;8.904;2024-01-30T16:01:38;17.23;;;12.13;;
8714;SDS011;4394;51.208;8.904;2024-01-30T16:04:27;16.90;;;11.73;;
8714;SDS011;4394;51.208;8.904;2024-01-30T16:07:15;14.63;;;11.70;;
8714;SDS011;4394;51.208;8.904;2024-01-30T16:10:05;16.17;;;11.80;;
8714;SDS011;4394;51.208;8.904;2024-01-30T16:12:55;17.60;;;12.63;;
8714;SDS011;4394;51.208;8.904;2024-01-30T16:15:43;19.93;;;12.77;;
8714;SDS011;4394;51.208;8.904;2024-01-30T16:18:31;19.20;;;13.73;;
8714;SDS011;4394;51.208;8.904;2024-01-30T16:21:19;17.23;;;12.37;;
8714;SDS011;4394;51.208;8.904;2024-01-30T16:24:07;19.07;;;13.23;;
8714;SDS011;4394;51.208;8.904;2024-01-30T16:26:57;18.97;;;12.83;;
8714;SDS011;4394;51.208;8.904;2024-01-30T16:29:45;16.33;;;12.50;;
8714;SDS011;4394;51.208;8.904;2024-01-30T16:32:33;17.57;;;12.37;;
8714;SDS011;4394;51.208;8.904;2024-01-30T16:35:21;17.23;;;12.10;;
8714;SDS011;4394;51.208;8.904;2024-01-30T16:38:29;18.57;;;13.27;;
8714;SDS011;4394;51.208;8.904;2024-01-30T16:41:17;17.77;;;12.23;;
8714;SDS011;4394;51.208;8.904;2024-01-30T16:44:07;19.43;;;12.23;;
8714;SDS011;4394;51.208;8.904;2024-01-30T16:46:55;16.70;;;13.30;;
8714;SDS011;4394;51.208;8.904;2024-01-30T16:49:43;17.83;;;12.07;;
8714;SDS011;4394;51.208;8.904;2024-01-30T16:52:31;19.50;;;13.80;;
8714;SDS011;4394;51.208;8.904;2024-01-30T16:55:19;16.43;;;12.77;;
8714;SDS011;4394;51.208;8.904;2024-01-30T16:58:08;20.03;;;13.27;;
8714;SDS011;4394;51.208;8.904;2024-01-30T17:00:59;17.63;;;12.37;;
8714;SDS011;4394;51.208;8.904;2024-01-30T17:03:47;20.63;;;12.90;;